0.200 kWh

EHAM AMSTERDAM/SCHIPHOL NLD -3 m.
METAR EHAM 250625Z 12004KT 090V160 9999 FEW027 17/16 Q1017 NOSIG

EHAM AMSTERDAM/SCHIPHOL NLD -3 m.
TAF EHAM 250445Z 2506/2612 09008KT CAVOK
PROB40 TEMPO 2511/2518 15013G24KT 4000 SHRA TSRA SCT040CB
PROB30 2513/2518 30010KT